Latest Conditions
At L.F.Wade Int. Airport
Recorded at 10:09 pm
Showers
Temp.: 
21°C/69°F
Humidity: 
81%
Wind: 
NE 9KT
or 10mph
UV Index: 
0
Island Observations
 
Observations
Tuesday, October 23, 2018

Observations are in local time and taken at least once an hour, or upon the start and end of specified events such as showers and thunderstorms.

Time Sky / Weather Wind Speed/Gusts Temp. R.H. Pressure
     knots (mph)  °C (°F)  %  mb / "Hg
 22:09 Overcast Showers NE 9/0 (10/0) 21(69) 81 1019 / 30.08
 22:02 Overcast Showers E 9/0 (10/0) 20(69) 82 1019 / 30.08
 21:55 Overcast Showers E 15/0 (17/0) 21(69) 82 1019 / 30.09
 20:55 Overcast Showers ENE 15/0 (17/0) 21(70) 81 1019 / 30.08
 19:55 Mostly Cloudy Showers E 17/0 (20/0) 21(70) 77 1019 / 30.09
 18:55 Mostly Cloudy  E 14/0 (16/0) 22(71) 73 1019 / 30.09
 17:55 Mostly Cloudy  E 16/0 (18/0) 22(72) 69 1019 / 30.08
 17:04 Mostly Cloudy Showers E 15/0 (17/0) 22(72) 74 1019 / 30.09
 16:55 Mostly Cloudy Showers E 17/0 (20/0) 22(72) 71 1019 / 30.09
 15:55 Mostly Cloudy Showers ENE 15/0 (17/0) 22(72) 74 1019 / 30.10
 15:17 Overcast Showers E 12/0 (14/0) 22(71) 74 1020 / 30.11
 14:55 Mostly Cloudy Showers ENE 15/0 (17/0) 22(72) 73 1020 / 30.11
 14:24 Mostly Cloudy Showers ENE 12/0 (14/0) 21(69) 87 1020 / 30.12
 14:09 Overcast Showers NE 12/0 (14/0) 21(70) 79 1020 / 30.12
 13:55 Mostly Cloudy  ENE 16/0 (18/0) 22(71) 78 1020 / 30.13
 12:55 Mostly Cloudy Showers ENE 16/0 (18/0) 23(73) 70 1021 / 30.14
 12:44 Mostly Cloudy Showers E 13/0 (15/0) 22(72) 76 1021 / 30.15
 12:34 Mostly Cloudy Showers E 19/0 (22/0) 23(73) 66 1021 / 30.15
 11:55 Mostly Cloudy  NE 14/0 (16/0) 23(73) 66 1022 / 30.17
 10:55 Partly Cloudy  NE 14/0 (16/0) 23(73) 65 1022 / 30.18
 09:55 Partly Cloudy  NE 14/0 (16/0) 22(72) 68 1022 / 30.19
 08:55 Mostly Cloudy  NE 14/0 (16/0) 22(71) 67 1022 / 30.18
 08:11 Mostly Cloudy Showers NE 11/0 (13/0) 21(70) 74 1022 / 30.17
 07:55 Mostly Cloudy Showers ESE 10/0 (12/0) 20(67) 81 1021 / 30.16
 07:46 Mostly Cloudy Showers E 11/0 (13/0) 18(64) 90 1022 / 30.17
 07:33 Mostly Cloudy Showers E 13/0 (15/0) 18(64) 90 1022 / 30.17
 06:55 Mostly Cloudy Showers ENE 11/0 (13/0) 20(67) 78 1021 / 30.16
 06:42 Mostly Cloudy Showers E 12/0 (14/0) 22(71) 66 1021 / 30.16
 05:55 Mostly Cloudy Showers NE 9/0 (10/0) 22(71) 64 1021 / 30.15
 04:55 Mostly Cloudy Showers NE 10/0 (12/0) 22(71) 59 1021 / 30.15
 03:55 Mostly Cloudy Showers NE 10/0 (12/0) 22(71) 59 1021 / 30.15
 02:55 Overcast Showers NNE 8/0 (9/0) 21(69) 71 1022 / 30.17
 02:41 Overcast Showers E 8/0 (9/0) 20(69) 72 1022 / 30.17
 02:25 Mostly Cloudy Showers NE 9/0 (10/0) 22(71) 58 1022 / 30.17
 01:55 Mostly Cloudy Showers NE 9/0 (10/0) 22(71) 56 1022 / 30.17
 00:55 Mostly Cloudy  NE 10/0 (12/0) 22(71) 57 1022 / 30.18
 23:55 Mostly Cloudy  NE 11/0 (13/0) 22(71) 57 1022 / 30.19
 22:55 Mostly Cloudy  NE 13/0 (15/0) 22(71) 59 1022 / 30.19
 21:55 Mostly Cloudy  NE 13/0 (15/0) 22(71) 59 1022 / 30.19
 20:55 Mostly Cloudy Showers NNE 13/0 (15/0) 22(71) 59 1022 / 30.18
 20:08 Mostly Cloudy Showers ENE 12/0 (14/0) 21(71) 61 1022 / 30.18
 19:55 Mostly Cloudy Showers NNE 13/0 (15/0) 21(69) 63 1022 / 30.18
 18:55 Mostly Cloudy  NNE 11/0 (13/0) 22(71) 57 1022 / 30.17
 17:55 Partly Cloudy  NNE 12/0 (14/0) 22(71) 56 1021 / 30.15
 16:55 Mostly Cloudy  NNE 11/0 (13/0) 23(73) 58 1021 / 30.14
 15:55 Mostly Cloudy  NNE 13/0 (15/0) 22(71) 58 1021 / 30.14
 14:55 Mostly Cloudy Showers NNE 12/0 (14/0) 22(72) 57 1020 / 30.12
 13:55 Mostly Cloudy  NNE 11/0 (13/0) 23(74) 51 1020 / 30.13
 12:55 Mostly Cloudy  NNE 12/0 (14/0) 23(74) 54 1021 / 30.14
 11:55 Mostly Cloudy  N 12/0 (14/0) 24(74) 48 1021 / 30.14
 10:55 Mostly Cloudy  N 13/0 (15/0) 22(72) 48 1020 / 30.13
 09:55 Mostly Cloudy  N 14/0 (16/0) 22(72) 51 1020 / 30.12
 08:55 Mostly Cloudy  N 15/25 (17/29) 22(71) 55 1019 / 30.09
 07:55 Mostly Cloudy Showers N 13/0 (15/0) 22(71) 53 1018 / 30.05
 06:55 Mostly Cloudy  N 13/0 (15/0) 22(71) 62 1017 / 30.02
 05:55 Mostly Cloudy  N 15/0 (17/0) 22(71) 58 1016 / 29.99
 04:55 Partly Cloudy  NNW 11/0 (13/0) 22(71) 58 1015 / 29.97
 03:55 Mostly Cloudy  NNW 13/0 (15/0) 22(72) 59 1014 / 29.95
 02:55 Mostly Cloudy  NNW 15/0 (17/0) 22(72) 65 1014 / 29.95
 01:55 Mostly Cloudy  NNW 15/0 (17/0) 23(73) 59 1014 / 29.94
 00:55 Overcast  NNW 15/0 (17/0) 23(73) 68 1014 / 29.93
 23:55 Overcast  NNW 16/0 (18/0) 23(74) 62 1013 / 29.91
 23:00 Overcast Showers NNW 17/0 (20/0) 23(74) 69 1013 / 29.91
 22:55 Overcast Showers NNW 17/0 (20/0) 23(74) 71 1013 / 29.90
 22:33 Overcast Showers NNW 15/0 (17/0) 23(73) 79 1012 / 29.89
 22:22 Overcast Showers NNW 15/0 (17/0) 22(72) 85 1012 / 29.89
 22:04 Overcast Showers NNW 12/27 (14/31) 22(72) 86 1012 / 29.88
 21:55 Overcast Showers NNW 11/0 (13/0) 23(73) 84 1012 / 29.87
 21:06 Overcast Showers WNW 13/0 (15/0) 23(73) 87 1011 / 29.86
 20:55 Overcast Showers WNW 12/0 (14/0) 23(73) 87 1011 / 29.86
 20:46 Overcast Showers WNW 14/0 (16/0) 23(73) 87 1011 / 29.86
 20:36 Overcast Showers WNW 14/0 (16/0) 23(73) 86 1011 / 29.86
 20:28 Overcast Showers NW 14/0 (16/0) 23(73) 86 1011 / 29.86
 20:11 Overcast Showers WNW 19/0 (22/0) 22(72) 95 1011 / 29.85
 20:01 Overcast Showers W 20/0 (23/0) 22(72) 95 1011 / 29.85
 19:55 Overcast Showers W 21/0 (24/0) 23(73) 94 1011 / 29.85
 19:44 Overcast Showers WSW 18/0 (21/0) 23(73) 91 1011 / 29.85
 19:31 Overcast Showers SW 17/0 (20/0) 25(76) 85 1010 / 29.83
 19:21 Overcast Showers SW 19/0 (22/0) 25(76) 83 1010 / 29.83
 19:14 Overcast Showers SW 21/0 (24/0) 24(76) 85 1010 / 29.83
 18:55 Overcast Showers SW 20/0 (23/0) 25(78) 80 1009 / 29.81
 17:55 Mostly Cloudy  SW 18/0 (21/0) 26(79) 73 1009 / 29.81
 16:55 Mostly Cloudy  SW 22/0 (25/0) 26(79) 73 1009 / 29.81
 15:55 Mostly Cloudy  SW 22/0 (25/0) 26(80) 68 1010 / 29.82
 14:55 Mostly Cloudy  SW 23/0 (26/0) 26(80) 68 1010 / 29.84
 13:55 Mostly Cloudy  SW 22/0 (25/0) 27(80) 62 1011 / 29.85
 12:55 Mostly Cloudy  SSW 22/0 (25/0) 27(80) 62 1012 / 29.88
 11:55 Mostly Cloudy  SW 20/0 (23/0) 26(80) 65 1013 / 29.90
 10:55 Mostly Cloudy  SW 20/0 (23/0) 26(79) 64 1013 / 29.91
 09:55 Mostly Cloudy  SW 20/0 (23/0) 25(77) 67 1013 / 29.91
 08:55 Mostly Cloudy  SSW 18/0 (21/0) 24(76) 71 1013 / 29.92
 07:55 Mostly Cloudy  SSW 11/0 (13/0) 24(74) 73 1013 / 29.91
 06:55 Mostly Cloudy  SSW 10/0 (12/0) 23(74) 70 1013 / 29.90
 05:55 Partly Cloudy  SSW 10/0 (12/0) 23(74) 70 1013 / 29.90
 04:55 Partly Cloudy  S 9/0 (10/0) 23(73) 71 1013 / 29.91
 03:55 Mostly Cloudy  S 9/0 (10/0) 23(74) 72 1014 / 29.94
 02:55 Mostly Cloudy  S 8/0 (9/0) 23(74) 72 1015 / 29.97
 01:55 Mostly Cloudy  S 11/0 (13/0) 24(74) 71 1016 / 29.99
 00:55 Mostly Cloudy Showers S 9/0 (10/0) 24(75) 66 1017 / 30.02
 23:55 Mostly Cloudy Showers SSE 11/0 (13/0) 24(75) 66 1017 / 30.03
Island AWOS